sensor_id;sensor_type;location;lat;lon;timestamp;pressure;altitude;pressure_sealevel;temperature;humidity
38786;BME280;24535;45.508;12.252;2023-01-26T00:00:50;101925.69;;;7.67;54.52
38786;BME280;24535;45.508;12.252;2023-01-26T00:03:15;101921.34;;;7.66;54.22
38786;BME280;24535;45.508;12.252;2023-01-26T00:05:41;101920.53;;;7.64;54.59
38786;BME280;24535;45.508;12.252;2023-01-26T00:08:06;101914.59;;;7.59;54.43
38786;BME280;24535;45.508;12.252;2023-01-26T00:10:35;101920.69;;;7.59;54.38
38786;BME280;24535;45.508;12.252;2023-01-26T00:13:02;101912.91;;;7.58;54.88
38786;BME280;24535;45.508;12.252;2023-01-26T00:15:27;101916.53;;;7.54;54.68
38786;BME280;24535;45.508;12.252;2023-01-26T00:17:53;101902.53;;;7.53;54.95
38786;BME280;24535;45.508;12.252;2023-01-26T00:20:18;101906.91;;;7.54;54.71
38786;BME280;24535;45.508;12.252;2023-01-26T00:22:44;101902.63;;;7.52;54.92
38786;BME280;24535;45.508;12.252;2023-01-26T00:25:09;101902.69;;;7.50;54.55
38786;BME280;24535;45.508;12.252;2023-01-26T00:27:35;101898.44;;;7.46;54.66
38786;BME280;24535;45.508;12.252;2023-01-26T00:30:00;101890.59;;;7.46;55.04
38786;BME280;24535;45.508;12.252;2023-01-26T00:32:26;101895.06;;;7.42;55.03
38786;BME280;24535;45.508;12.252;2023-01-26T00:34:51;101894.31;;;7.39;54.88
38786;BME280;24535;45.508;12.252;2023-01-26T00:37:17;101882.06;;;7.39;55.01
38786;BME280;24535;45.508;12.252;2023-01-26T00:39:42;101884.63;;;7.41;54.63
38786;BME280;24535;45.508;12.252;2023-01-26T00:42:09;101881.97;;;7.42;55.21
38786;BME280;24535;45.508;12.252;2023-01-26T00:44:36;101884.63;;;7.41;55.29
38786;BME280;24535;45.508;12.252;2023-01-26T00:47:04;101887.16;;;7.44;55.12
38786;BME280;24535;45.508;12.252;2023-01-26T00:49:29;101890.63;;;7.44;54.85
38786;BME280;24535;45.508;12.252;2023-01-26T00:51:55;101879.38;;;7.41;55.15
38786;BME280;24535;45.508;12.252;2023-01-26T00:54:20;101879.50;;;7.38;55.20
38786;BME280;24535;45.508;12.252;2023-01-26T00:56:46;101874.38;;;7.35;54.82
38786;BME280;24535;45.508;12.252;2023-01-26T00:59:11;101878.94;;;7.30;54.90
38786;BME280;24535;45.508;12.252;2023-01-26T01:01:37;101877.19;;;7.29;54.79
38786;BME280;24535;45.508;12.252;2023-01-26T01:04:02;101879.81;;;7.29;55.05
38786;BME280;24535;45.508;12.252;2023-01-26T01:06:28;101876.47;;;7.25;55.61
38786;BME280;24535;45.508;12.252;2023-01-26T01:08:53;101878.22;;;7.25;55.50
38786;BME280;24535;45.508;12.252;2023-01-26T01:11:19;101879.97;;;7.24;55.25
38786;BME280;24535;45.508;12.252;2023-01-26T01:13:44;101869.66;;;7.19;55.59
38786;BME280;24535;45.508;12.252;2023-01-26T01:16:12;101873.97;;;7.21;55.57
38786;BME280;24535;45.508;12.252;2023-01-26T01:18:38;101872.19;;;7.23;55.29
38786;BME280;24535;45.508;12.252;2023-01-26T01:21:12;101869.63;;;7.21;55.65
38786;BME280;24535;45.508;12.252;2023-01-26T01:23:38;101868.72;;;7.22;55.20
38786;BME280;24535;45.508;12.252;2023-01-26T01:26:04;101865.34;;;7.18;55.27
38786;BME280;24535;45.508;12.252;2023-01-26T01:28:31;101870.56;;;7.18;55.36
38786;BME280;24535;45.508;12.252;2023-01-26T01:30:56;101856.66;;;7.16;55.26
38786;BME280;24535;45.508;12.252;2023-01-26T01:33:22;101861.91;;;7.16;55.53
38786;BME280;24535;45.508;12.252;2023-01-26T01:36:05;101854.94;;;7.15;55.85
38786;BME280;24535;45.508;12.252;2023-01-26T01:38:31;101848.78;;;7.16;55.49
38786;BME280;24535;45.508;12.252;2023-01-26T01:40:57;101850.66;;;7.13;54.97
38786;BME280;24535;45.508;12.252;2023-01-26T01:43:23;101855.97;;;7.11;55.86
38786;BME280;24535;45.508;12.252;2023-01-26T01:45:50;101848.97;;;7.12;55.83
38786;BME280;24535;45.508;12.252;2023-01-26T01:48:20;101848.16;;;7.10;55.16
38786;BME280;24535;45.508;12.252;2023-01-26T01:50:49;101849.88;;;7.11;55.30
38786;BME280;24535;45.508;12.252;2023-01-26T01:53:26;101843.78;;;7.10;55.29
38786;BME280;24535;45.508;12.252;2023-01-26T01:55:57;101836.03;;;7.07;55.25
38786;BME280;24535;45.508;12.252;2023-01-26T01:58:26;101836.94;;;7.06;55.31
38786;BME280;24535;45.508;12.252;2023-01-26T02:00:52;101836.25;;;7.01;55.28
38786;BME280;24535;45.508;12.252;2023-01-26T02:03:18;101840.59;;;7.01;55.64
38786;BME280;24535;45.508;12.252;2023-01-26T02:08:23;101828.25;;;7.04;55.67
38786;BME280;24535;45.508;12.252;2023-01-26T02:10:52;101829.19;;;7.03;55.50
38786;BME280;24535;45.508;12.252;2023-01-26T02:13:19;101827.47;;;7.02;55.31
38786;BME280;24535;45.508;12.252;2023-01-26T02:15:45;101820.53;;;7.01;55.47
38786;BME280;24535;45.508;12.252;2023-01-26T02:18:11;101822.34;;;6.99;55.79
38786;BME280;24535;45.508;12.252;2023-01-26T02:26:17;101818.09;;;6.95;55.44
38786;BME280;24535;45.508;12.252;2023-01-26T02:28:44;101809.41;;;6.94;55.24
38786;BME280;24535;45.508;12.252;2023-01-26T02:31:11;101806.88;;;6.91;55.33
38786;BME280;24535;45.508;12.252;2023-01-26T02:33:37;101801.59;;;6.93;55.57
38786;BME280;24535;45.508;12.252;2023-01-26T02:36:03;101800.84;;;6.89;55.28
38786;BME280;24535;45.508;12.252;2023-01-26T02:38:39;101798.06;;;6.94;56.09
38786;BME280;24535;45.508;12.252;2023-01-26T02:41:07;101797.22;;;6.93;55.84
38786;BME280;24535;45.508;12.252;2023-01-26T02:43:33;101785.94;;;6.91;55.85
38786;BME280;24535;45.508;12.252;2023-01-26T02:45:59;101787.69;;;6.91;55.77
38786;BME280;24535;45.508;12.252;2023-01-26T02:48:25;101787.69;;;6.91;55.60
38786;BME280;24535;45.508;12.252;2023-01-26T02:51:09;101784.31;;;6.87;55.66
38786;BME280;24535;45.508;12.252;2023-01-26T02:53:35;101781.66;;;6.89;56.00
38786;BME280;24535;45.508;12.252;2023-01-26T02:56:00;101776.44;;;6.89;56.17
38786;BME280;24535;45.508;12.252;2023-01-26T02:58:26;101773.69;;;6.92;55.55
38786;BME280;24535;45.508;12.252;2023-01-26T03:00:51;101764.06;;;6.92;55.75
38786;BME280;24535;45.508;12.252;2023-01-26T03:03:22;101754.50;;;6.91;55.71
38786;BME280;24535;45.508;12.252;2023-01-26T03:05:49;101751.88;;;6.91;56.03
38786;BME280;24535;45.508;12.252;2023-01-26T03:08:15;101752.72;;;6.92;55.63
38786;BME280;24535;45.508;12.252;2023-01-26T03:10:40;101747.56;;;6.90;55.79
38786;BME280;24535;45.508;12.252;2023-01-26T03:13:06;101743.06;;;6.94;55.79
38786;BME280;24535;45.508;12.252;2023-01-26T03:15:32;101742.09;;;6.97;55.96
38786;BME280;24535;45.508;12.252;2023-01-26T03:18:17;101739.44;;;6.98;55.51
38786;BME280;24535;45.508;12.252;2023-01-26T03:21:04;101736.84;;;6.97;55.46
38786;BME280;24535;45.508;12.252;2023-01-26T03:23:49;101736.00;;;6.96;55.76
38786;BME280;24535;45.508;12.252;2023-01-26T03:26:33;101722.03;;;6.96;55.21
38786;BME280;24535;45.508;12.252;2023-01-26T03:29:17;101735.13;;;6.96;55.40
38786;BME280;24535;45.508;12.252;2023-01-26T03:31:43;101721.28;;;6.92;55.78
38786;BME280;24535;45.508;12.252;2023-01-26T03:34:08;101717.78;;;6.93;55.41
38786;BME280;24535;45.508;12.252;2023-01-26T03:36:34;101716.97;;;6.91;55.87
38786;BME280;24535;45.508;12.252;2023-01-26T03:38:59;101712.59;;;6.91;55.63
38786;BME280;24535;45.508;12.252;2023-01-26T03:41:24;101710.03;;;6.90;55.97
38786;BME280;24535;45.508;12.252;2023-01-26T03:44:09;101712.69;;;6.88;55.54
38786;BME280;24535;45.508;12.252;2023-01-26T03:46:53;101706.59;;;6.88;55.80
38786;BME280;24535;45.508;12.252;2023-01-26T03:49:37;101705.84;;;6.84;55.67
38786;BME280;24535;45.508;12.252;2023-01-26T03:52:21;101701.38;;;6.88;55.58
38786;BME280;24535;45.508;12.252;2023-01-26T03:55:05;101693.50;;;6.88;55.74
38786;BME280;24535;45.508;12.252;2023-01-26T03:57:49;101686.63;;;6.85;55.80
38786;BME280;24535;45.508;12.252;2023-01-26T04:00:15;101680.53;;;6.85;55.63
38786;BME280;24535;45.508;12.252;2023-01-26T04:02:41;101677.94;;;6.85;55.87
38786;BME280;24535;45.508;12.252;2023-01-26T04:05:25;101677.75;;;6.89;55.38
38786;BME280;24535;45.508;12.252;2023-01-26T04:08:09;101672.44;;;6.91;55.47
38786;BME280;24535;45.508;12.252;2023-01-26T04:10:55;101673.25;;;6.93;55.13
38786;BME280;24535;45.508;12.252;2023-01-26T04:13:22;101670.69;;;6.91;55.26
38786;BME280;24535;45.508;12.252;2023-01-26T04:16:08;101679.47;;;6.90;55.33
38786;BME280;24535;45.508;12.252;2023-01-26T04:18:52;101677.00;;;6.86;54.92
38786;BME280;24535;45.508;12.252;2023-01-26T04:21:36;101680.75;;;6.79;55.17
38786;BME280;24535;45.508;12.252;2023-01-26T04:24:04;101682.63;;;6.75;55.35
38786;BME280;24535;45.508;12.252;2023-01-26T04:26:38;101677.56;;;6.71;55.27
38786;BME280;24535;45.508;12.252;2023-01-26T04:29:09;101675.88;;;6.68;55.62
38786;BME280;24535;45.508;12.252;2023-01-26T04:31:36;101668.91;;;6.68;55.86
38786;BME280;24535;45.508;12.252;2023-01-26T04:34:03;101664.53;;;6.69;55.85
38786;BME280;24535;45.508;12.252;2023-01-26T04:36:30;101667.00;;;6.72;55.82
38786;BME280;24535;45.508;12.252;2023-01-26T04:38:56;101659.13;;;6.74;55.61
38786;BME280;24535;45.508;12.252;2023-01-26T04:41:22;101662.59;;;6.74;55.67
38786;BME280;24535;45.508;12.252;2023-01-26T04:43:48;101653.72;;;6.78;55.85
38786;BME280;24535;45.508;12.252;2023-01-26T04:46:13;101655.38;;;6.81;55.78
38786;BME280;24535;45.508;12.252;2023-01-26T04:48:39;101653.66;;;6.80;55.71
38786;BME280;24535;45.508;12.252;2023-01-26T04:51:08;101652.88;;;6.78;55.92
38786;BME280;24535;45.508;12.252;2023-01-26T04:53:34;101644.34;;;6.73;55.67
38786;BME280;24535;45.508;12.252;2023-01-26T04:55:59;101646.19;;;6.69;55.37
38786;BME280;24535;45.508;12.252;2023-01-26T04:58:25;101651.59;;;6.64;55.59
38786;BME280;24535;45.508;12.252;2023-01-26T05:00:55;101650.13;;;6.57;55.60
38786;BME280;24535;45.508;12.252;2023-01-26T05:03:22;101644.16;;;6.52;55.51
38786;BME280;24535;45.508;12.252;2023-01-26T05:05:49;101640.91;;;6.46;56.03
38786;BME280;24535;45.508;12.252;2023-01-26T05:08:15;101645.41;;;6.42;56.08
38786;BME280;24535;45.508;12.252;2023-01-26T05:10:41;101648.13;;;6.39;56.01
38786;BME280;24535;45.508;12.252;2023-01-26T05:13:08;101647.44;;;6.34;56.28
38786;BME280;24535;45.508;12.252;2023-01-26T05:15:34;101649.25;;;6.32;56.64
38786;BME280;24535;45.508;12.252;2023-01-26T05:18:00;101645.84;;;6.30;56.62
38786;BME280;24535;45.508;12.252;2023-01-26T05:20:25;101646.84;;;6.26;56.83
38786;BME280;24535;45.508;12.252;2023-01-26T05:22:51;101647.78;;;6.23;57.13
38786;BME280;24535;45.508;12.252;2023-01-26T05:25:17;101644.41;;;6.19;56.70
38786;BME280;24535;45.508;12.252;2023-01-26T05:27:44;101634.09;;;6.16;57.10
38786;BME280;24535;45.508;12.252;2023-01-26T05:30:10;101643.81;;;6.11;56.95
38786;BME280;24535;45.508;12.252;2023-01-26T05:32:36;101649.97;;;6.10;57.40
38786;BME280;24535;45.508;12.252;2023-01-26T05:35:04;101640.44;;;6.09;56.89
38786;BME280;24535;45.508;12.252;2023-01-26T05:37:30;101641.38;;;6.07;57.62
38786;BME280;24535;45.508;12.252;2023-01-26T05:39:55;101637.13;;;6.04;57.52
38786;BME280;24535;45.508;12.252;2023-01-26T05:42:21;101633.69;;;6.02;57.10
38786;BME280;24535;45.508;12.252;2023-01-26T05:44:47;101633.00;;;5.97;57.48
38786;BME280;24535;45.508;12.252;2023-01-26T05:47:13;101640.94;;;5.94;57.49
38786;BME280;24535;45.508;12.252;2023-01-26T05:49:39;101639.34;;;5.88;57.57
38786;BME280;24535;45.508;12.252;2023-01-26T05:52:08;101641.16;;;5.86;57.83
38786;BME280;24535;45.508;12.252;2023-01-26T05:54:35;101642.13;;;5.84;57.70
38786;BME280;24535;45.508;12.252;2023-01-26T05:57:00;101647.28;;;5.85;57.89
38786;BME280;24535;45.508;12.252;2023-01-26T05:59:26;101644.66;;;5.85;58.17
38786;BME280;24535;45.508;12.252;2023-01-26T06:01:52;101647.34;;;5.84;58.04
38786;BME280;24535;45.508;12.252;2023-01-26T06:04:17;101643.91;;;5.82;57.97
38786;BME280;24535;45.508;12.252;2023-01-26T06:06:42;101648.28;;;5.81;58.00
38786;BME280;24535;45.508;12.252;2023-01-26T06:09:08;101641.38;;;5.79;58.21
38786;BME280;24535;45.508;12.252;2023-01-26T06:11:33;101647.53;;;5.78;57.69
38786;BME280;24535;45.508;12.252;2023-01-26T06:13:59;101642.41;;;5.75;57.84
38786;BME280;24535;45.508;12.252;2023-01-26T06:16:25;101642.50;;;5.72;58.35
38786;BME280;24535;45.508;12.252;2023-01-26T06:18:50;101640.91;;;5.67;58.34
38786;BME280;24535;45.508;12.252;2023-01-26T06:21:15;101633.09;;;5.66;58.40
38786;BME280;24535;45.508;12.252;2023-01-26T06:23:41;101635.75;;;5.64;58.36
38786;BME280;24535;45.508;12.252;2023-01-26T06:26:07;101633.19;;;5.63;58.38
38786;BME280;24535;45.508;12.252;2023-01-26T06:28:32;101638.47;;;5.61;58.29
38786;BME280;24535;45.508;12.252;2023-01-26T06:31:01;101635.09;;;5.58;58.70
38786;BME280;24535;45.508;12.252;2023-01-26T06:33:28;101634.31;;;5.56;58.70
38786;BME280;24535;45.508;12.252;2023-01-26T06:35:53;101629.94;;;5.56;58.87
38786;BME280;24535;45.508;12.252;2023-01-26T06:38:20;101634.34;;;5.54;58.69
38786;BME280;24535;45.508;12.252;2023-01-26T06:40:46;101633.47;;;5.54;58.81
38786;BME280;24535;45.508;12.252;2023-01-26T06:43:11;101636.91;;;5.56;58.89
38786;BME280;24535;45.508;12.252;2023-01-26T06:45:37;101642.16;;;5.54;59.38
38786;BME280;24535;45.508;12.252;2023-01-26T06:48:03;101634.34;;;5.54;59.25
38786;BME280;24535;45.508;12.252;2023-01-26T06:50:31;101637.84;;;5.53;59.00
38786;BME280;24535;45.508;12.252;2023-01-26T06:53:03;101635.31;;;5.52;59.39
38786;BME280;24535;45.508;12.252;2023-01-26T06:55:34;101635.38;;;5.49;59.40
38786;BME280;24535;45.508;12.252;2023-01-26T06:58:00;101638.00;;;5.49;59.42
38786;BME280;24535;45.508;12.252;2023-01-26T07:00:25;101651.91;;;5.49;59.36
38786;BME280;24535;45.508;12.252;2023-01-26T07:02:51;101643.22;;;5.49;60.06
38786;BME280;24535;45.508;12.252;2023-01-26T07:05:16;101644.94;;;5.50;59.79
38786;BME280;24535;45.508;12.252;2023-01-26T07:07:42;101634.53;;;5.48;59.95
38786;BME280;24535;45.508;12.252;2023-01-26T07:10:08;101634.44;;;5.51;59.91
38786;BME280;24535;45.508;12.252;2023-01-26T07:12:41;101643.91;;;5.55;60.10
38786;BME280;24535;45.508;12.252;2023-01-26T07:15:08;101638.63;;;5.57;60.19
38786;BME280;24535;45.508;12.252;2023-01-26T07:17:36;101635.91;;;5.60;60.26
38786;BME280;24535;45.508;12.252;2023-01-26T07:20:02;101633.25;;;5.61;59.89
38786;BME280;24535;45.508;12.252;2023-01-26T07:22:28;101637.56;;;5.62;59.84
38786;BME280;24535;45.508;12.252;2023-01-26T07:24:53;101628.88;;;5.62;59.93
38786;BME280;24535;45.508;12.252;2023-01-26T07:27:18;101630.56;;;5.63;59.82
38786;BME280;24535;45.508;12.252;2023-01-26T07:29:44;101635.69;;;5.67;60.28
38786;BME280;24535;45.508;12.252;2023-01-26T07:32:11;101628.56;;;5.71;60.37
38786;BME280;24535;45.508;12.252;2023-01-26T07:34:37;101628.44;;;5.76;59.92
38786;BME280;24535;45.508;12.252;2023-01-26T07:37:02;101629.94;;;5.83;60.01
38786;BME280;24535;45.508;12.252;2023-01-26T07:39:30;101629.78;;;5.87;59.77
38786;BME280;24535;45.508;12.252;2023-01-26T07:41:55;101634.00;;;5.93;59.68
38786;BME280;24535;45.508;12.252;2023-01-26T07:44:21;101620.84;;;5.96;60.28
38786;BME280;24535;45.508;12.252;2023-01-26T07:46:46;101616.22;;;6.03;59.97
38786;BME280;24535;45.508;12.252;2023-01-26T07:49:11;101615.19;;;6.08;59.43
38786;BME280;24535;45.508;12.252;2023-01-26T07:51:37;101624.56;;;6.14;59.84
38786;BME280;24535;45.508;12.252;2023-01-26T07:54:04;101618.25;;;6.19;59.30
38786;BME280;24535;45.508;12.252;2023-01-26T07:56:30;101618.06;;;6.26;59.35
38786;BME280;24535;45.508;12.252;2023-01-26T07:58:56;101624.00;;;6.31;59.17
38786;BME280;24535;45.508;12.252;2023-01-26T08:01:22;101621.03;;;6.40;59.04
38786;BME280;24535;45.508;12.252;2023-01-26T08:03:51;101616.44;;;6.47;59.05
38786;BME280;24535;45.508;12.252;2023-01-26T08:06:18;101604.75;;;6.57;58.91
38786;BME280;24535;45.508;12.252;2023-01-26T08:08:44;101605.38;;;6.63;58.93
38786;BME280;24535;45.508;12.252;2023-01-26T08:11:11;101613.81;;;6.72;58.71
38786;BME280;24535;45.508;12.252;2023-01-26T08:13:37;101610.16;;;6.76;58.32
38786;BME280;24535;45.508;12.252;2023-01-26T08:16:05;101615.97;;;6.84;58.16
38786;BME280;24535;45.508;12.252;2023-01-26T08:18:33;101613.91;;;6.92;58.20
38786;BME280;24535;45.508;12.252;2023-01-26T08:20:58;101598.94;;;6.96;58.41
38786;BME280;24535;45.508;12.252;2023-01-26T08:23:25;101609.03;;;7.06;58.51
38786;BME280;24535;45.508;12.252;2023-01-26T08:25:50;101613.97;;;7.14;58.36
38786;BME280;24535;45.508;12.252;2023-01-26T08:28:16;101606.72;;;7.21;58.00
38786;BME280;24535;45.508;12.252;2023-01-26T08:30:42;101611.66;;;7.28;58.10
38786;BME280;24535;45.508;12.252;2023-01-26T08:33:07;101620.06;;;7.36;57.38
38786;BME280;24535;45.508;12.252;2023-01-26T08:35:33;101612.94;;;7.40;57.46
38786;BME280;24535;45.508;12.252;2023-01-26T08:38:01;101625.69;;;7.49;57.84
38786;BME280;24535;45.508;12.252;2023-01-26T08:40:27;101621.91;;;7.56;57.50
38786;BME280;24535;45.508;12.252;2023-01-26T08:42:52;101617.16;;;7.66;57.00
38786;BME280;24535;45.508;12.252;2023-01-26T08:45:18;101618.59;;;7.73;56.79
38786;BME280;24535;45.508;12.252;2023-01-26T08:47:48;101620.13;;;7.79;56.69
38786;BME280;24535;45.508;12.252;2023-01-26T08:50:14;101620.72;;;7.85;56.25
38786;BME280;24535;45.508;12.252;2023-01-26T08:52:40;101622.25;;;7.91;55.53
38786;BME280;24535;45.508;12.252;2023-01-26T08:55:05;101618.59;;;7.95;55.59
38786;BME280;24535;45.508;12.252;2023-01-26T08:57:31;101624.41;;;8.02;54.83
38786;BME280;24535;45.508;12.252;2023-01-26T08:59:56;101628.44;;;8.10;55.43
38786;BME280;24535;45.508;12.252;2023-01-26T09:02:22;101618.31;;;8.22;55.04
38786;BME280;24535;45.508;12.252;2023-01-26T09:04:47;101615.25;;;8.32;54.77
38786;BME280;24535;45.508;12.252;2023-01-26T09:07:13;101621.47;;;8.50;54.43
38786;BME280;24535;45.508;12.252;2023-01-26T09:09:38;101621.88;;;8.61;54.33
38786;BME280;24535;45.508;12.252;2023-01-26T09:12:04;101607.75;;;8.64;52.94
38786;BME280;24535;45.508;12.252;2023-01-26T09:14:29;101612.59;;;8.73;53.12
38786;BME280;24535;45.508;12.252;2023-01-26T09:16:54;101614.75;;;8.84;53.44
38786;BME280;24535;45.508;12.252;2023-01-26T09:19:20;101615.06;;;8.95;52.79
38786;BME280;24535;45.508;12.252;2023-01-26T09:21:46;101616.47;;;9.04;52.73
38786;BME280;24535;45.508;12.252;2023-01-26T09:24:11;101623.19;;;9.09;51.75
38786;BME280;24535;45.508;12.252;2023-01-26T09:26:37;101623.91;;;9.13;52.08
38786;BME280;24535;45.508;12.252;2023-01-26T09:29:02;101615.81;;;9.18;52.52
38786;BME280;24535;45.508;12.252;2023-01-26T09:31:28;101618.16;;;9.24;52.16
38786;BME280;24535;45.508;12.252;2023-01-26T09:33:53;101625.97;;;9.25;51.47
38786;BME280;24535;45.508;12.252;2023-01-26T09:36:19;101619.72;;;9.28;50.90
38786;BME280;24535;45.508;12.252;2023-01-26T09:38:45;101621.41;;;9.29;51.32
38786;BME280;24535;45.508;12.252;2023-01-26T09:44:25;101621.06;;;9.36;50.96
38786;BME280;24535;45.508;12.252;2023-01-26T09:47:16;101612.00;;;9.42;50.34
38786;BME280;24535;45.508;12.252;2023-01-26T09:52:28;101610.69;;;9.70;50.61
38786;BME280;24535;45.508;12.252;2023-01-26T09:54:57;101612.94;;;9.77;50.41
38786;BME280;24535;45.508;12.252;2023-01-26T10:00:03;101606.91;;;9.93;49.73
38786;BME280;24535;45.508;12.252;2023-01-26T10:02:54;101596.22;;;9.96;49.52
38786;BME280;24535;45.508;12.252;2023-01-26T10:08:01;101599.69;;;9.96;49.23
38786;BME280;24535;45.508;12.252;2023-01-26T10:10:34;101600.47;;;9.98;49.07
38786;BME280;24535;45.508;12.252;2023-01-26T10:13:00;101590.88;;;9.97;48.79
38786;BME280;24535;45.508;12.252;2023-01-26T10:15:31;101590.88;;;9.97;48.46
38786;BME280;24535;45.508;12.252;2023-01-26T10:18:05;101590.78;;;9.99;48.76
38786;BME280;24535;45.508;12.252;2023-01-26T10:20:34;101586.94;;;10.06;49.21
38786;BME280;24535;45.508;12.252;2023-01-26T10:23:04;101585.00;;;10.09;48.76
38786;BME280;24535;45.508;12.252;2023-01-26T10:25:39;101580.25;;;10.16;48.20
38786;BME280;24535;45.508;12.252;2023-01-26T10:28:15;101572.78;;;10.26;48.58
38786;BME280;24535;45.508;12.252;2023-01-26T10:30:42;101567.78;;;10.37;48.98
38786;BME280;24535;45.508;12.252;2023-01-26T10:33:15;101574.28;;;10.47;48.21
38786;BME280;24535;45.508;12.252;2023-01-26T10:35:42;101569.59;;;10.52;47.72
38786;BME280;24535;45.508;12.252;2023-01-26T10:40:59;101558.59;;;10.61;47.60
38786;BME280;24535;45.508;12.252;2023-01-26T10:43:26;101552.13;;;10.67;47.46
38786;BME280;24535;45.508;12.252;2023-01-26T10:45:51;101543.97;;;10.72;47.51
38786;BME280;24535;45.508;12.252;2023-01-26T10:48:17;101543.66;;;10.78;47.37
38786;BME280;24535;45.508;12.252;2023-01-26T10:50:45;101534.53;;;10.83;46.64
38786;BME280;24535;45.508;12.252;2023-01-26T10:53:27;101533.34;;;10.89;46.24
38786;BME280;24535;45.508;12.252;2023-01-26T11:01:05;101528.91;;;10.89;45.50
38786;BME280;24535;45.508;12.252;2023-01-26T11:03:37;101521.97;;;10.88;46.22
38786;BME280;24535;45.508;12.252;2023-01-26T11:08:37;101513.19;;;10.88;45.51
38786;BME280;24535;45.508;12.252;2023-01-26T11:11:22;101518.56;;;10.86;45.06
38786;BME280;24535;45.508;12.252;2023-01-26T11:14:15;101504.59;;;10.84;45.11
38786;BME280;24535;45.508;12.252;2023-01-26T11:17:16;101506.56;;;10.81;44.95
38786;BME280;24535;45.508;12.252;2023-01-26T11:19:58;101495.28;;;10.79;45.05
38786;BME280;24535;45.508;12.252;2023-01-26T11:25:34;101477.00;;;10.76;45.38
38786;BME280;24535;45.508;12.252;2023-01-26T11:28:54;101474.44;;;10.74;44.92
38786;BME280;24535;45.508;12.252;2023-01-26T11:31:20;101469.25;;;10.73;44.88
38786;BME280;24535;45.508;12.252;2023-01-26T11:34:06;101469.50;;;10.68;45.29
38786;BME280;24535;45.508;12.252;2023-01-26T11:42:34;101456.44;;;10.67;44.58
38786;BME280;24535;45.508;12.252;2023-01-26T11:50:27;101448.25;;;10.55;45.08
38786;BME280;24535;45.508;12.252;2023-01-26T11:58:41;101431.72;;;10.53;44.89
38786;BME280;24535;45.508;12.252;2023-01-26T12:01:16;101426.50;;;10.52;44.90
38786;BME280;24535;45.508;12.252;2023-01-26T12:03:49;101426.50;;;10.52;45.16
38786;BME280;24535;45.508;12.252;2023-01-26T12:06:22;101424.72;;;10.52;45.17
38786;BME280;24535;45.508;12.252;2023-01-26T12:09:00;101418.59;;;10.52;45.36
38786;BME280;24535;45.508;12.252;2023-01-26T12:14:11;101415.13;;;10.51;45.23
38786;BME280;24535;45.508;12.252;2023-01-26T12:17:05;101411.53;;;10.52;45.33
38786;BME280;24535;45.508;12.252;2023-01-26T12:20:42;101411.63;;;10.51;45.09
38786;BME280;24535;45.508;12.252;2023-01-26T12:22:41;101396.84;;;10.48;45.40
38786;BME280;24535;45.508;12.252;2023-01-26T12:25:33;101397.94;;;10.44;45.19
38786;BME280;24535;45.508;12.252;2023-01-26T12:33:10;101386.31;;;10.32;45.53
38786;BME280;24535;45.508;12.252;2023-01-26T12:46:35;101361.31;;;10.24;45.22
38786;BME280;24535;45.508;12.252;2023-01-26T12:51:42;101361.03;;;10.12;45.15
38786;BME280;24535;45.508;12.252;2023-01-26T12:56:53;101349.19;;;10.05;45.66
38786;BME280;24535;45.508;12.252;2023-01-26T12:59:31;101341.44;;;10.02;45.67
38786;BME280;24535;45.508;12.252;2023-01-26T13:02:01;101341.53;;;10.01;45.66
38786;BME280;24535;45.508;12.252;2023-01-26T13:04:33;101338.03;;;10.00;45.69
38786;BME280;24535;45.508;12.252;2023-01-26T13:07:03;101330.22;;;9.99;45.63
38786;BME280;24535;45.508;12.252;2023-01-26T13:12:56;101319.19;;;9.92;45.42
38786;BME280;24535;45.508;12.252;2023-01-26T13:15:30;101317.59;;;9.89;45.75
38786;BME280;24535;45.508;12.252;2023-01-26T13:18:03;101317.59;;;9.89;45.42
38786;BME280;24535;45.508;12.252;2023-01-26T13:20:47;101320.13;;;9.91;45.33
38786;BME280;24535;45.508;12.252;2023-01-26T13:23:39;101319.28;;;9.90;45.31
38786;BME280;24535;45.508;12.252;2023-01-26T13:26:34;101313.00;;;9.93;46.10
38786;BME280;24535;45.508;12.252;2023-01-26T13:32:00;101317.16;;;9.97;45.87
38786;BME280;24535;45.508;12.252;2023-01-26T13:34:56;101311.13;;;9.95;45.51
38786;BME280;24535;45.508;12.252;2023-01-26T13:37:26;101308.59;;;9.94;45.81
38786;BME280;24535;45.508;12.252;2023-01-26T13:39:58;101301.63;;;9.93;45.85
38786;BME280;24535;45.508;12.252;2023-01-26T13:42:30;101312.66;;;9.99;46.25
38786;BME280;24535;45.508;12.252;2023-01-26T13:46:14;101302.97;;;10.00;45.87
38786;BME280;24535;45.508;12.252;2023-01-26T13:48:19;101303.66;;;10.03;45.99
38786;BME280;24535;45.508;12.252;2023-01-26T13:50:50;101313.22;;;10.04;45.62
38786;BME280;24535;45.508;12.252;2023-01-26T13:56:38;101310.81;;;10.01;45.77
38786;BME280;24535;45.508;12.252;2023-01-26T13:59:14;101316.06;;;10.01;46.38
38786;BME280;24535;45.508;12.252;2023-01-26T14:01:46;101312.31;;;10.05;46.11
38786;BME280;24535;45.508;12.252;2023-01-26T14:04:14;101304.25;;;10.08;46.05
38786;BME280;24535;45.508;12.252;2023-01-26T14:06:42;101308.75;;;10.06;45.58
38786;BME280;24535;45.508;12.252;2023-01-26T14:09:11;101301.59;;;10.08;45.59
38786;BME280;24535;45.508;12.252;2023-01-26T14:11:38;101306.97;;;10.07;45.79
38786;BME280;24535;45.508;12.252;2023-01-26T14:14:04;101305.28;;;10.06;45.78
38786;BME280;24535;45.508;12.252;2023-01-26T14:16:34;101303.50;;;10.06;45.84
38786;BME280;24535;45.508;12.252;2023-01-26T14:21:51;101292.44;;;10.00;45.37
38786;BME280;24535;45.508;12.252;2023-01-26T14:24:51;101296.38;;;9.93;46.00
38786;BME280;24535;45.508;12.252;2023-01-26T14:27:38;101299.00;;;9.93;46.33